Energean Wave — SVA6915 — position and weather

sailwx.info

Track history (hours):
 
Tides and Currents Weather Stations Pressure Air Temp Water Temp Dewpoint Dewpoint Depression Visibility Wind Speed Wind Dir Waves Ship Positions

Energean Wave

Last reported at 2018-Feb-24 15:14 UTC. Time now 2018-Feb-24 15:59 UTC.
Position N 40°56' E 024°25'.

Length 47 m; draft 2 m.

Type: . MMSI: 239935100.

Date/timePositionNaut miles runAvg speedWind from/ knotsBaromVisibWave heightAir tempDewpointWater temp
2018-Feb-24 15:14N 40°56' E 024°25'0 0.0
2018-Feb-24 14:38N 40°56' E 024°25'0 0.0
2018-Feb-24 14:08N 40°56' E 024°25'0 0.0
2018-Feb-24 13:02N 40°56' E 024°25'0 0.0
2018-Feb-24 12:44N 40°56' E 024°25'0 0.0
2018-Feb-24 12:14N 40°56' E 024°25'0 0.0
2018-Feb-24 09:44N 40°56' E 024°25'0 0.0
2018-Feb-24 09:26N 40°56' E 024°25'0 0.0
2018-Feb-24 08:56N 40°56' E 024°25'0 0.0
2018-Feb-24 08:20N 40°56' E 024°25'0 0.0
2018-Feb-24 07:56N 40°56' E 024°25'0 0.0
2018-Feb-24 07:14N 40°56' E 024°25'0 0.0
2018-Feb-24 06:50N 40°56' E 024°25'0 0.0
2018-Feb-24 06:26N 40°56' E 024°25'0 0.0
2018-Feb-24 05:56N 40°56' E 024°25'0 0.0
2018-Feb-24 04:29N 40°56' E 024°25'0 0.0
2018-Feb-24 03:56N 40°56' E 024°25'0 0.0
2018-Feb-24 03:26N 40°56' E 024°25'0 0.0
2018-Feb-24 02:56N 40°56' E 024°25'0 0.0
2018-Feb-24 02:26N 40°56' E 024°25'0 0.0
2018-Feb-24 01:50N 40°56' E 024°25'0 0.0
2018-Feb-24 01:26N 40°56' E 024°25'0 0.0
2018-Feb-24 00:38N 40°56' E 024°25'0 0.0
2018-Feb-24 00:20N 40°56' E 024°25'0 0.0
2018-Feb-23 23:50N 40°56' E 024°25'0 0.0
2018-Feb-23 23:20N 40°56' E 024°25'0 0.0
2018-Feb-23 22:55N 40°56' E 024°25'4 9.5
2018-Feb-23 22:30N 40°52' E 024°27'5 9.6
2018-Feb-23 21:59N 40°48' E 024°30'511.4
2018-Feb-23 21:30N 40°53' E 024°27'3 6.0
2018-Feb-23 20:56N 40°56' E 024°25'0 0.0
2018-Feb-23 20:29N 40°56' E 024°25'0 0.0
2018-Feb-23 19:53N 40°56' E 024°25'0 0.0
2018-Feb-23 19:23N 40°56' E 024°25'0 0.0
2018-Feb-23 18:56N 40°56' E 024°25'0 0.0
2018-Feb-23 18:26N 40°56' E 024°25'0 0.0
2018-Feb-23 17:56N 40°56' E 024°25'0 0.0
2018-Feb-23 17:29N 40°56' E 024°25'0 0.0
2018-Feb-23 16:56N 40°56' E 024°25'0 0.0
2018-Feb-23 16:26N 40°56' E 024°25'0 0.0
2018-Feb-23 15:56N 40°56' E 024°25'0 0.0
2018-Feb-23 15:26N 40°56' E 024°25'0 0.0
2018-Feb-23 14:56N 40°56' E 024°25'4 9.3
2018-Feb-23 14:30N 40°52' E 024°26'510.3
2018-Feb-23 14:01N 40°48' E 024°30'7 0.8
2018-Feb-23 05:28N 40°54' E 024°26'2 4.2
2018-Feb-23 04:58N 40°56' E 024°25'0 0.0
2018-Feb-23 04:28N 40°56' E 024°25'0 0.0
2018-Feb-23 03:58N 40°56' E 024°25'0 0.0
2018-Feb-23 03:28N 40°56' E 024°25'0 0.0
2018-Feb-23 02:58N 40°56' E 024°25'0 0.0
2018-Feb-23 02:28N 40°56' E 024°25'0 0.0
2018-Feb-23 01:58N 40°56' E 024°25'0 0.0
2018-Feb-23 01:28N 40°56' E 024°25'0 0.0
2018-Feb-23 00:46N 40°56' E 024°25'0 0.0
2018-Feb-23 00:10N 40°56' E 024°25'0 0.0
2018-Feb-22 23:46N 40°56' E 024°25'0 0.0
2018-Feb-22 23:25N 40°56' E 024°25'0 0.0
2018-Feb-22 22:58N 40°56' E 024°25'0 0.0
2018-Feb-22 22:28N 40°56' E 024°25'0 0.0
2018-Feb-22 21:58N 40°56' E 024°25'0 0.0
2018-Feb-22 21:28N 40°56' E 024°25'0 0.0
2018-Feb-22 20:58N 40°56' E 024°25'0 0.0
2018-Feb-22 20:22N 40°56' E 024°25'0 0.0
2018-Feb-22 19:58N 40°56' E 024°25'0 0.0
2018-Feb-22 19:28N 40°56' E 024°25'0 0.0
2018-Feb-22 18:58N 40°56' E 024°25'0 0.0
2018-Feb-22 18:25N 40°56' E 024°25'0 0.0
2018-Feb-22 17:58N 40°56' E 024°25'0 0.0
2018-Feb-22 17:28N 40°56' E 024°25'0 0.0
2018-Feb-22 16:55N 40°56' E 024°25'0 0.0
2018-Feb-22 16:25N 40°56' E 024°25'0 0.0
2018-Feb-22 15:55N 40°56' E 024°25'0 0.0
2018-Feb-22 15:25N 40°56' E 024°25'0 0.0
2018-Feb-22 14:58N 40°56' E 024°25'0 0.0
2018-Feb-22 11:58N 40°56' E 024°25'0 0.0
2018-Feb-22 11:25N 40°56' E 024°25'0 0.0
2018-Feb-22 10:58N 40°56' E 024°25'0 0.0
2018-Feb-22 10:28N 40°56' E 024°25'0 0.0
2018-Feb-22 09:52N 40°56' E 024°25'0 0.0
2018-Feb-22 09:25N 40°56' E 024°25'0 0.0
2018-Feb-22 08:58N 40°56' E 024°25'0 0.0
2018-Feb-22 08:28N 40°56' E 024°25'0 0.0
2018-Feb-22 07:49N 40°56' E 024°25'0 0.0
2018-Feb-22 07:22N 40°56' E 024°25'0 0.4
2018-Feb-22 06:58N 40°56' E 024°25'713.6
2018-Feb-22 06:29N 40°50' E 024°28'2 5.1
2018-Feb-22 06:00N 40°48' E 024°30'611.4
2018-Feb-22 05:30N 40°53' E 024°27'3 1.8
2018-Feb-22 03:46N 40°56' E 024°25'0 0.0
2018-Feb-22 03:22N 40°56' E 024°25'0 0.0
2018-Feb-22 02:58N 40°56' E 024°25'0 0.0
2018-Feb-22 02:16N 40°56' E 024°25'0 0.0
2018-Feb-22 01:16N 40°56' E 024°25'0 0.0
2018-Feb-22 00:58N 40°56' E 024°25'0 0.0
2018-Feb-22 00:22N 40°56' E 024°25'0 0.0
2018-Feb-21 23:52N 40°56' E 024°25'0 0.0
2018-Feb-21 23:28N 40°56' E 024°25'0 0.0
2018-Feb-21 22:58N 40°56' E 024°25'3 5.6
2018-Feb-21 22:30N 40°53' E 024°25'612.4
2018-Feb-21 21:59N 40°48' E 024°30'611.5
2018-Feb-21 21:30N 40°53' E 024°27'3 1.6
2018-Feb-21 19:29N 40°56' E 024°25'0 0.1
2018-Feb-21 19:00N 40°56' E 024°25'611.4
2018-Feb-21 18:30N 40°51' E 024°28'3 6.1
2018-Feb-21 17:59N 40°48' E 024°30'612.0
2018-Feb-21 17:30N 40°53' E 024°27'3 6.4
2018-Feb-21 17:00N 40°56' E 024°25'0 0.0
2018-Feb-21 16:30N 40°56' E 024°25'0 0.0
2018-Feb-21 16:00N 40°56' E 024°25'0 0.0
2018-Feb-21 15:27N 40°56' E 024°25'0 0.0
2018-Feb-21 15:00N 40°56' E 024°25'3 6.1
2018-Feb-21 14:31N 40°53' E 024°26'611.2
2018-Feb-21 13:59N 40°48' E 024°30'511.1
2018-Feb-21 13:30N 40°53' E 024°27'4 7.1
2018-Feb-21 13:00N 40°56' E 024°25'0 0.0
2018-Feb-21 12:30N 40°56' E 024°25'0 0.0
2018-Feb-21 12:00N 40°56' E 024°25'0 0.0
2018-Feb-21 11:30N 40°56' E 024°25'0 0.1
2018-Feb-21 11:00N 40°56' E 024°25'0 0.2
2018-Feb-21 10:26N 40°56' E 024°25'0 0.0
2018-Feb-21 09:59N 40°56' E 024°25'0 0.0
2018-Feb-21 09:26N 40°56' E 024°25'0 0.0
2018-Feb-21 08:59N 40°56' E 024°25'0 0.0
2018-Feb-21 08:26N 40°56' E 024°25'0 0.0
2018-Feb-21 07:59N 40°56' E 024°25'0 0.0
2018-Feb-21 07:26N 40°56' E 024°25'0 0.3
2018-Feb-21 07:00N 40°56' E 024°25'611.8
2018-Feb-21 06:30N 40°51' E 024°28'3 6.2
2018-Feb-21 06:00N 40°48' E 024°30'510.3
2018-Feb-21 05:30N 40°53' E 024°27'4 6.6
2018-Feb-21 04:57N 40°56' E 024°25'0 0.0
2018-Feb-21 04:27N 40°56' E 024°25'0 0.0
2018-Feb-21 03:24N 40°56' E 024°25'0 0.0
2018-Feb-21 03:00N 40°56' E 024°25'0 0.0
2018-Feb-21 02:30N 40°56' E 024°25'0 0.0
2018-Feb-21 02:00N 40°56' E 024°25'0 0.0
2018-Feb-21 01:24N 40°56' E 024°25'0 0.0
2018-Feb-21 01:00N 40°56' E 024°25'0 0.0
2018-Feb-21 00:24N 40°56' E 024°25'0 0.0
2018-Feb-21 00:00N 40°56' E 024°25'0 0.0
2018-Feb-20 23:30N 40°56' E 024°25'0 0.0
2018-Feb-20 23:00N 40°56' E 024°25'3 6.4
2018-Feb-20 22:30N 40°53' E 024°25'611.6
2018-Feb-20 22:00N 40°48' E 024°30'510.2
2018-Feb-20 21:30N 40°53' E 024°27'4 0.6
2018-Feb-20 15:12N 40°56' E 024°25'0 0.7
2018-Feb-20 14:59N 40°56' E 024°25'613.1
2018-Feb-20 14:31N 40°50' E 024°28'3 5.7
2018-Feb-20 14:00N 40°48' E 024°30'611.9
2018-Feb-20 13:30N 40°53' E 024°26'3 5.3
2018-Feb-20 13:00N 40°56' E 024°25'611.5
2018-Feb-20 12:28N 40°57' E 024°33'0 0.0
2018-Feb-20 11:49N 40°57' E 024°33'0 0.0
2018-Feb-20 11:25N 40°57' E 024°33'0 0.0
2018-Feb-20 10:55N 40°57' E 024°33'0 0.0
2018-Feb-20 10:28N 40°57' E 024°33'0 0.0
2018-Feb-20 09:58N 40°57' E 024°33'0 0.0
2018-Feb-20 09:28N 40°57' E 024°33'0 0.0
2018-Feb-20 08:55N 40°57' E 024°33'0 0.0
2018-Feb-20 08:28N 40°57' E 024°33'0 0.0
2018-Feb-20 07:58N 40°57' E 024°33'3 7.4
2018-Feb-20 07:30N 40°56' E 024°28'3 6.2
2018-Feb-20 07:00N 40°56' E 024°24'816.2
2018-Feb-20 06:30N 40°48' E 024°29'1 1.4
2018-Feb-20 06:00N 40°48' E 024°30'816.2
2018-Feb-20 05:31N 40°55' E 024°25'1 1.5
2018-Feb-20 04:57N 40°56' E 024°25'0 0.0
2018-Feb-20 04:24N 40°56' E 024°25'0 0.0
2018-Feb-20 03:51N 40°56' E 024°25'0 0.0
2018-Feb-20 03:24N 40°56' E 024°25'0 0.0
2018-Feb-20 03:00N 40°56' E 024°25'0 0.0
2018-Feb-20 02:30N 40°56' E 024°25'0 0.0
2018-Feb-20 02:00N 40°56' E 024°25'0 0.0
2018-Feb-20 01:30N 40°56' E 024°25'0 0.0
2018-Feb-20 01:00N 40°56' E 024°25'0 0.0
2018-Feb-20 00:30N 40°56' E 024°25'0 0.0
2018-Feb-20 00:00N 40°56' E 024°25'0 0.0
2018-Feb-19 23:30N 40°56' E 024°25'0 0.0
2018-Feb-19 22:57N 40°56' E 024°25'4 8.5
2018-Feb-19 22:30N 40°52' E 024°26'5 8.9
2018-Feb-19 21:55N 40°48' E 024°30'512.6
2018-Feb-19 21:30N 40°52' E 024°27'4 7.1
2018-Feb-19 20:58N 40°56' E 024°25'0 0.0
2018-Feb-19 20:28N 40°56' E 024°25'0 0.0
2018-Feb-19 19:58N 40°56' E 024°25'0 0.0
2018-Feb-19 19:28N 40°56' E 024°25'0 0.9
2018-Feb-19 19:00N 40°56' E 024°24'816.1
2018-Feb-19 18:30N 40°49' E 024°30'1 2.4
2018-Feb-19 18:01N 40°50' E 024°29'713.6
2018-Feb-19 17:30N 40°56' E 024°25'0 0.2
2018-Feb-19 16:48N 40°56' E 024°25'0 0.0
2018-Feb-19 16:30N 40°56' E 024°25'0 0.0
2018-Feb-19 15:48N 40°56' E 024°25'0 0.0
2018-Feb-19 15:30N 40°56' E 024°25'0 0.0
2018-Feb-19 14:18N 40°56' E 024°25'0 0.0
2018-Feb-19 13:54N 40°56' E 024°25'0 0.0
2018-Feb-19 13:30N 40°56' E 024°25'0 0.0
2018-Feb-19 12:57N 40°56' E 024°25'0 0.0
2018-Feb-19 12:27N 40°56' E 024°25'0 0.0
2018-Feb-19 11:51N 40°56' E 024°25'0 0.0
2018-Feb-19 11:27N 40°56' E 024°25'0 0.0
2018-Feb-19 10:57N 40°56' E 024°25'0 0.0
2018-Feb-19 10:27N 40°56' E 024°25'0 0.0
2018-Feb-19 09:57N 40°56' E 024°25'0 0.0
2018-Feb-19 09:27N 40°56' E 024°25'0 0.0
2018-Feb-19 08:57N 40°56' E 024°25'0 0.0
2018-Feb-19 08:21N 40°56' E 024°25'0 0.0
2018-Feb-19 07:39N 40°56' E 024°25'0 0.0
2018-Feb-19 07:27N 40°56' E 024°25'0 0.0
2018-Feb-19 06:57N 40°56' E 024°25'0 0.0
2018-Feb-19 06:15N 40°56' E 024°25'0 0.0
2018-Feb-19 05:51N 40°56' E 024°25'0 0.0
2018-Feb-19 05:27N 40°56' E 024°25'0 0.0
2018-Feb-19 04:39N 40°56' E 024°25'0 0.0
2018-Feb-19 04:09N 40°56' E 024°25'0 0.0
2018-Feb-19 03:57N 40°56' E 024°25'0 0.0
2018-Feb-19 03:27N 40°56' E 024°25'0 0.0
2018-Feb-19 02:57N 40°56' E 024°25'0 0.0
2018-Feb-19 02:09N 40°56' E 024°25'0 0.0
2018-Feb-19 01:51N 40°56' E 024°25'0 0.0
2018-Feb-19 01:15N 40°56' E 024°25'0 0.0
2018-Feb-19 00:45N 40°56' E 024°25'0 0.0
2018-Feb-19 00:27N 40°56' E 024°25'0 0.0
2018-Feb-18 23:51N 40°56' E 024°25'0 0.0
2018-Feb-18 23:27N 40°56' E 024°25'0 0.0
2018-Feb-18 22:57N 40°56' E 024°25'2 5.6
2018-Feb-18 22:30N 40°53' E 024°25'612.1
2018-Feb-18 21:59N 40°48' E 024°30'510.6
2018-Feb-18 21:31N 40°52' E 024°27'4 7.4
2018-Feb-18 20:59N 40°56' E 024°25'0 0.0
2018-Feb-18 20:23N 40°56' E 024°25'0 0.0
2018-Feb-18 18:59N 40°56' E 024°25'4 7.8
2018-Feb-18 18:30N 40°52' E 024°26'510.2
2018-Feb-18 18:00N 40°48' E 024°30'510.6
2018-Feb-18 17:30N 40°53' E 024°27'4 1.4
2018-Feb-18 14:54N 40°56' E 024°25'3 8.2
2018-Feb-18 14:31N 40°53' E 024°26'610.9
2018-Feb-18 13:59N 40°48' E 024°30'612.4
2018-Feb-18 13:31N 40°53' E 024°26'3 6.0
2018-Feb-18 13:00N 40°56' E 024°25'0 0.0
2018-Feb-18 12:30N 40°56' E 024°25'0 0.0
2018-Feb-18 12:00N 40°56' E 024°25'0 0.0
2018-Feb-18 11:30N 40°56' E 024°25'0 0.0
2018-Feb-18 10:57N 40°56' E 024°25'0 0.0
2018-Feb-18 10:30N 40°56' E 024°25'0 0.0
2018-Feb-18 10:00N 40°56' E 024°25'0 0.0
2018-Feb-18 09:30N 40°56' E 024°25'0 0.0
2018-Feb-18 09:00N 40°56' E 024°25'0 0.0
2018-Feb-18 08:27N 40°56' E 024°25'0 0.0
2018-Feb-18 07:54N 40°56' E 024°25'0 0.0
2018-Feb-18 07:30N 40°56' E 024°25'0 0.3
2018-Feb-18 06:58N 40°56' E 024°25'713.8
2018-Feb-18 06:27N 40°49' E 024°29'2 3.8
2018-Feb-18 05:59N 40°48' E 024°30'611.4
2018-Feb-18 05:30N 40°53' E 024°26'3 6.7
2018-Feb-18 05:00N 40°56' E 024°25'0 0.0
2018-Feb-18 04:30N 40°56' E 024°25'0 0.0
2018-Feb-18 04:00N 40°56' E 024°25'0 0.0
2018-Feb-18 02:24N 40°56' E 024°25'0 0.0
2018-Feb-18 02:00N 40°56' E 024°25'0 0.0
2018-Feb-18 01:12N 40°56' E 024°25'0 0.0
2018-Feb-18 00:54N 40°56' E 024°25'0 0.0
2018-Feb-18 00:30N 40°56' E 024°25'0 0.0
2018-Feb-18 00:00N 40°56' E 024°25'0 0.0
2018-Feb-17 19:24N 40°56' E 024°25'0 0.0
2018-Feb-17 17:06N 40°56' E 024°25'0 0.0
2018-Feb-17 16:48N 40°56' E 024°25'0 0.0
2018-Feb-17 16:24N 40°56' E 024°25'0 0.0
2018-Feb-17 16:00N 40°56' E 024°25'0 0.0
2018-Feb-17 15:30N 40°56' E 024°25'0 0.0
2018-Feb-17 14:48N 40°56' E 024°25'0 0.0
2018-Feb-17 14:18N 40°56' E 024°25'0 0.0
2018-Feb-17 14:00N 40°56' E 024°25'0 0.0
2018-Feb-17 13:30N 40°56' E 024°25'0 0.0
2018-Feb-17 13:00N 40°56' E 024°25'0 0.0
2018-Feb-17 12:30N 40°56' E 024°25'0 0.0
2018-Feb-17 12:00N 40°56' E 024°25'0 0.0
2018-Feb-17 11:24N 40°56' E 024°25'0 0.0
2018-Feb-17 11:00N 40°56' E 024°25'0 0.0
2018-Feb-17 10:30N 40°56' E 024°25'0 0.0
2018-Feb-17 10:00N 40°56' E 024°25'0 0.0
2018-Feb-17 09:30N 40°56' E 024°25'0 0.0
2018-Feb-17 08:57N 40°56' E 024°25'0 0.0
2018-Feb-17 08:24N 40°56' E 024°25'0 0.0
2018-Feb-17 08:00N 40°56' E 024°25'0 0.0
2018-Feb-17 07:24N 40°56' E 024°25'0 0.0
2018-Feb-17 07:00N 40°56' E 024°25'0 0.0
2018-Feb-17 06:24N 40°56' E 024°25'0 0.0
2018-Feb-17 06:00N 40°56' E 024°25'0 0.0
2018-Feb-17 05:30N 40°56' E 024°25'0 0.0
2018-Feb-17 05:00N 40°56' E 024°25'0 0.0
2018-Feb-17 04:30N 40°56' E 024°25'0 0.0
2018-Feb-17 04:00N 40°56' E 024°25'0 0.0
2018-Feb-17 03:30N 40°56' E 024°25'0 0.0
2018-Feb-17 03:00N 40°56' E 024°25'0 0.0
2018-Feb-17 02:30N 40°56' E 024°25'0 0.0
2018-Feb-17 02:00N 40°56' E 024°25'0 0.0
2018-Feb-17 01:24N 40°56' E 024°25'0 0.0
2018-Feb-17 01:00N 40°56' E 024°25'0 0.0
2018-Feb-17 00:30N 40°56' E 024°25'0 0.0
2018-Feb-17 00:00N 40°56' E 024°25'0 0.0
2018-Feb-16 23:30N 40°56' E 024°25'0 0.0
2018-Feb-16 22:54N 40°56' E 024°25'0 0.0
2018-Feb-16 22:30N 40°56' E 024°25'0 0.0
2018-Feb-16 22:00N 40°56' E 024°25'0 0.0
2018-Feb-16 21:30N 40°56' E 024°25'0 0.0
2018-Feb-16 21:00N 40°56' E 024°25'0 0.0
2018-Feb-16 20:30N 40°56' E 024°25'0 0.0
2018-Feb-16 20:00N 40°56' E 024°25'0 0.0
2018-Feb-16 19:30N 40°56' E 024°25'0 0.0
2018-Feb-16 18:48N 40°56' E 024°25'0 0.0
2018-Feb-16 18:30N 40°56' E 024°25'0 0.0
2018-Feb-16 17:42N 40°56' E 024°25'0 0.0
2018-Feb-16 17:24N 40°56' E 024°25'0 0.0
2018-Feb-16 16:57N 40°56' E 024°25'0 0.0
2018-Feb-16 16:24N 40°56' E 024°25'0 0.0
2018-Feb-16 15:54N 40°56' E 024°25'0 0.0
2018-Feb-16 15:30N 40°56' E 024°25'0 0.0
2018-Feb-16 15:00N 40°56' E 024°25'0 0.0
2018-Feb-16 14:30N 40°56' E 024°25'0 0.0
2018-Feb-16 13:45N 40°56' E 024°25'0 0.0
2018-Feb-16 13:27N 40°56' E 024°25'0 0.2
2018-Feb-16 13:00N 40°56' E 024°24'4 7.7
2018-Feb-16 12:30N 40°52' E 024°26'4 8.4
2018-Feb-16 12:00N 40°49' E 024°29'1 1.5
2018-Feb-16 11:22N 40°48' E 024°30'0 0.0
2018-Feb-16 10:43N 40°48' E 024°30'1 3.2
2018-Feb-16 10:30N 40°48' E 024°30'816.3
2018-Feb-16 10:00N 40°56' E 024°32'1 1.5
2018-Feb-16 09:29N 40°57' E 024°33'0 0.0
2018-Feb-16 08:59N 40°57' E 024°33'3 5.4
2018-Feb-16 08:30N 40°56' E 024°29'4 6.6
2018-Feb-16 07:58N 40°56' E 024°25'0 0.0
2018-Feb-16 07:28N 40°56' E 024°25'0 0.4
2018-Feb-16 06:59N 40°56' E 024°25'613.2
2018-Feb-16 06:30N 40°50' E 024°28'3 5.4
2018-Feb-16 06:00N 40°48' E 024°30'511.2
2018-Feb-16 05:30N 40°53' E 024°27'3 5.1
2018-Feb-16 04:50N 40°56' E 024°25'0 0.0
2018-Feb-16 04:26N 40°56' E 024°25'0 0.0
2018-Feb-16 03:59N 40°56' E 024°25'0 0.0
2018-Feb-16 03:26N 40°56' E 024°25'0 0.0
2018-Feb-16 02:59N 40°56' E 024°25'0 0.0
2018-Feb-16 02:29N 40°56' E 024°25'0 0.0
2018-Feb-16 01:56N 40°56' E 024°25'0 0.0
2018-Feb-16 01:29N 40°56' E 024°25'0 0.0
2018-Feb-16 00:59N 40°56' E 024°25'0 0.0
2018-Feb-16 00:26N 40°56' E 024°25'0 0.0
2018-Feb-15 23:59N 40°56' E 024°25'0 0.0
2018-Feb-15 23:29N 40°56' E 024°25'0 0.0
2018-Feb-15 23:00N 40°56' E 024°25'510.4
2018-Feb-15 22:30N 40°51' E 024°27'4 7.2
2018-Feb-15 21:59N 40°48' E 024°30'611.7
2018-Feb-15 21:30N 40°53' E 024°27'3 6.2
2018-Feb-15 20:58N 40°56' E 024°25'0 0.0
2018-Feb-15 20:19N 40°56' E 024°25'0 0.0
2018-Feb-15 19:55N 40°56' E 024°25'0 0.0
2018-Feb-15 19:19N 40°56' E 024°25'0 0.0
2018-Feb-15 18:58N 40°56' E 024°25'4 9.6
2018-Feb-15 18:30N 40°52' E 024°27'4 8.7
2018-Feb-15 18:00N 40°48' E 024°30'511.1
2018-Feb-15 17:30N 40°53' E 024°27'3 6.3
2018-Feb-15 16:58N 40°56' E 024°25'0 0.0
2018-Feb-15 16:28N 40°56' E 024°25'0 0.0
2018-Feb-15 15:52N 40°56' E 024°25'0 0.0
2018-Feb-15 15:31N 40°56' E 024°25'0 0.0
2018-Feb-15 15:01N 40°56' E 024°25'4 7.3
2018-Feb-15 14:30N 40°52' E 024°26'510.0
2018-Feb-15 13:59N 40°48' E 024°30'511.6
2018-Feb-15 13:31N 40°53' E 024°27'3 6.0
2018-Feb-15 12:56N 40°56' E 024°25'0 0.0
2018-Feb-15 12:29N 40°56' E 024°25'0 0.0
2018-Feb-15 11:35N 40°56' E 024°25'0 0.0
2018-Feb-15 11:17N 40°56' E 024°25'0 0.0
2018-Feb-15 10:53N 40°56' E 024°25'0 0.0
2018-Feb-15 10:23N 40°56' E 024°25'0 0.0
2018-Feb-15 09:59N 40°56' E 024°25'0 0.0
2018-Feb-15 09:29N 40°56' E 024°25'0 0.0
2018-Feb-15 08:05N 40°56' E 024°25'0 0.0
2018-Feb-15 07:53N 40°56' E 024°25'0 0.5
2018-Feb-15 07:30N 40°56' E 024°25'713.6
2018-Feb-15 07:00N 40°50' E 024°28'2 4.4
2018-Feb-15 06:30N 40°48' E 024°30'511.2
2018-Feb-15 06:00N 40°53' E 024°27'4 6.8
2018-Feb-15 05:29N 40°56' E 024°25'0 0.3
2018-Feb-15 04:46N 40°56' E 024°25'0 0.0
2018-Feb-15 04:28N 40°56' E 024°25'0 0.0
2018-Feb-14 23:43N 40°56' E 024°25'0 0.0
2018-Feb-14 23:28N 40°56' E 024°25'0 0.0
2018-Feb-14 22:58N 40°56' E 024°25'0 0.0
2018-Feb-14 22:28N 40°56' E 024°25'0 0.0
2018-Feb-14 21:52N 40°56' E 024°25'0 0.0
2018-Feb-14 21:28N 40°56' E 024°25'0 0.0
2018-Feb-14 20:58N 40°56' E 024°25'0 0.0
2018-Feb-14 20:28N 40°56' E 024°25'0 0.0
2018-Feb-14 19:58N 40°56' E 024°25'0 0.0
2018-Feb-14 19:28N 40°56' E 024°25'0 0.0
2018-Feb-14 18:58N 40°56' E 024°25'0 0.0
2018-Feb-14 18:13N 40°56' E 024°25'0 0.0
2018-Feb-14 17:55N 40°56' E 024°25'0 0.0
2018-Feb-14 16:40N 40°56' E 024°25'0 0.0
2018-Feb-14 16:28N 40°56' E 024°25'0 0.0
2018-Feb-14 15:58N 40°56' E 024°25'0 0.0
2018-Feb-14 15:22N 40°56' E 024°25'  
Track history (hours):
 
Tides and Currents Weather Stations Pressure Air Temp Water Temp Dewpoint Dewpoint Depression Visibility Wind Speed Wind Dir Waves Ship Positions

Energean Wave

Last reported at 2018-Feb-24 15:14 UTC. Time now 2018-Feb-24 15:59 UTC.
Position N 40°56' E 024°25'.

Length 47 m; draft 2 m.

Type: . MMSI: 239935100.

Date/timePositionNaut miles runAvg speedWind from/ knotsBaromVisibWave heightAir tempDewpointWater temp
2018-Feb-24 15:14N 40°56' E 024°25'0 0.0
2018-Feb-24 14:38N 40°56' E 024°25'0 0.0
2018-Feb-24 14:08N 40°56' E 024°25'0 0.0
2018-Feb-24 13:02N 40°56' E 024°25'0 0.0
2018-Feb-24 12:44N 40°56' E 024°25'0 0.0
2018-Feb-24 12:14N 40°56' E 024°25'0 0.0
2018-Feb-24 09:44N 40°56' E 024°25'0 0.0
2018-Feb-24 09:26N 40°56' E 024°25'0 0.0
2018-Feb-24 08:56N 40°56' E 024°25'0 0.0
2018-Feb-24 08:20N 40°56' E 024°25'0 0.0
2018-Feb-24 07:56N 40°56' E 024°25'0 0.0
2018-Feb-24 07:14N 40°56' E 024°25'0 0.0
2018-Feb-24 06:50N 40°56' E 024°25'0 0.0
2018-Feb-24 06:26N 40°56' E 024°25'0 0.0
2018-Feb-24 05:56N 40°56' E 024°25'0 0.0
2018-Feb-24 04:29N 40°56' E 024°25'0 0.0
2018-Feb-24 03:56N 40°56' E 024°25'0 0.0
2018-Feb-24 03:26N 40°56' E 024°25'0 0.0
2018-Feb-24 02:56N 40°56' E 024°25'0 0.0
2018-Feb-24 02:26N 40°56' E 024°25'0 0.0
2018-Feb-24 01:50N 40°56' E 024°25'0 0.0
2018-Feb-24 01:26N 40°56' E 024°25'0 0.0
2018-Feb-24 00:38N 40°56' E 024°25'0 0.0
2018-Feb-24 00:20N 40°56' E 024°25'0 0.0
2018-Feb-23 23:50N 40°56' E 024°25'0 0.0
2018-Feb-23 23:20N 40°56' E 024°25'0 0.0
2018-Feb-23 22:55N 40°56' E 024°25'4 9.5
2018-Feb-23 22:30N 40°52' E 024°27'5 9.6
2018-Feb-23 21:59N 40°48' E 024°30'511.4
2018-Feb-23 21:30N 40°53' E 024°27'3 6.0
2018-Feb-23 20:56N 40°56' E 024°25'0 0.0
2018-Feb-23 20:29N 40°56' E 024°25'0 0.0
2018-Feb-23 19:53N 40°56' E 024°25'0 0.0
2018-Feb-23 19:23N 40°56' E 024°25'0 0.0
2018-Feb-23 18:56N 40°56' E 024°25'0 0.0
2018-Feb-23 18:26N 40°56' E 024°25'0 0.0
2018-Feb-23 17:56N 40°56' E 024°25'0 0.0
2018-Feb-23 17:29N 40°56' E 024°25'0 0.0
2018-Feb-23 16:56N 40°56' E 024°25'0 0.0
2018-Feb-23 16:26N 40°56' E 024°25'0 0.0
2018-Feb-23 15:56N 40°56' E 024°25'0 0.0
2018-Feb-23 15:26N 40°56' E 024°25'0 0.0
2018-Feb-23 14:56N 40°56' E 024°25'4 9.3
2018-Feb-23 14:30N 40°52' E 024°26'510.3
2018-Feb-23 14:01N 40°48' E 024°30'7 0.8
2018-Feb-23 05:28N 40°54' E 024°26'2 4.2
2018-Feb-23 04:58N 40°56' E 024°25'0 0.0
2018-Feb-23 04:28N 40°56' E 024°25'0 0.0
2018-Feb-23 03:58N 40°56' E 024°25'0 0.0
2018-Feb-23 03:28N 40°56' E 024°25'0 0.0
2018-Feb-23 02:58N 40°56' E 024°25'0 0.0
2018-Feb-23 02:28N 40°56' E 024°25'0 0.0
2018-Feb-23 01:58N 40°56' E 024°25'0 0.0
2018-Feb-23 01:28N 40°56' E 024°25'0 0.0
2018-Feb-23 00:46N 40°56' E 024°25'0 0.0
2018-Feb-23 00:10N 40°56' E 024°25'0 0.0
2018-Feb-22 23:46N 40°56' E 024°25'0 0.0
2018-Feb-22 23:25N 40°56' E 024°25'0 0.0
2018-Feb-22 22:58N 40°56' E 024°25'0 0.0
2018-Feb-22 22:28N 40°56' E 024°25'0 0.0
2018-Feb-22 21:58N 40°56' E 024°25'0 0.0
2018-Feb-22 21:28N 40°56' E 024°25'0 0.0
2018-Feb-22 20:58N 40°56' E 024°25'0 0.0
2018-Feb-22 20:22N 40°56' E 024°25'0 0.0
2018-Feb-22 19:58N 40°56' E 024°25'0 0.0
2018-Feb-22 19:28N 40°56' E 024°25'0 0.0
2018-Feb-22 18:58N 40°56' E 024°25'0 0.0
2018-Feb-22 18:25N 40°56' E 024°25'0 0.0
2018-Feb-22 17:58N 40°56' E 024°25'0 0.0
2018-Feb-22 17:28N 40°56' E 024°25'0 0.0
2018-Feb-22 16:55N 40°56' E 024°25'0 0.0
2018-Feb-22 16:25N 40°56' E 024°25'0 0.0
2018-Feb-22 15:55N 40°56' E 024°25'0 0.0
2018-Feb-22 15:25N 40°56' E 024°25'0 0.0
2018-Feb-22 14:58N 40°56' E 024°25'0 0.0
2018-Feb-22 11:58N 40°56' E 024°25'0 0.0
2018-Feb-22 11:25N 40°56' E 024°25'0 0.0
2018-Feb-22 10:58N 40°56' E 024°25'0 0.0
2018-Feb-22 10:28N 40°56' E 024°25'0 0.0
2018-Feb-22 09:52N 40°56' E 024°25'0 0.0
2018-Feb-22 09:25N 40°56' E 024°25'0 0.0
2018-Feb-22 08:58N 40°56' E 024°25'0 0.0
2018-Feb-22 08:28N 40°56' E 024°25'0 0.0
2018-Feb-22 07:49N 40°56' E 024°25'0 0.0
2018-Feb-22 07:22N 40°56' E 024°25'0 0.4
2018-Feb-22 06:58N 40°56' E 024°25'713.6
2018-Feb-22 06:29N 40°50' E 024°28'2 5.1
2018-Feb-22 06:00N 40°48' E 024°30'611.4
2018-Feb-22 05:30N 40°53' E 024°27'3 1.8
2018-Feb-22 03:46N 40°56' E 024°25'0 0.0
2018-Feb-22 03:22N 40°56' E 024°25'0 0.0
2018-Feb-22 02:58N 40°56' E 024°25'0 0.0
2018-Feb-22 02:16N 40°56' E 024°25'0 0.0
2018-Feb-22 01:16N 40°56' E 024°25'0 0.0
2018-Feb-22 00:58N 40°56' E 024°25'0 0.0
2018-Feb-22 00:22N 40°56' E 024°25'0 0.0
2018-Feb-21 23:52N 40°56' E 024°25'0 0.0
2018-Feb-21 23:28N 40°56' E 024°25'0 0.0
2018-Feb-21 22:58N 40°56' E 024°25'3 5.6
2018-Feb-21 22:30N 40°53' E 024°25'612.4
2018-Feb-21 21:59N 40°48' E 024°30'611.5
2018-Feb-21 21:30N 40°53' E 024°27'3 1.6
2018-Feb-21 19:29N 40°56' E 024°25'0 0.1
2018-Feb-21 19:00N 40°56' E 024°25'611.4
2018-Feb-21 18:30N 40°51' E 024°28'3 6.1
2018-Feb-21 17:59N 40°48' E 024°30'612.0
2018-Feb-21 17:30N 40°53' E 024°27'3 6.4
2018-Feb-21 17:00N 40°56' E 024°25'0 0.0
2018-Feb-21 16:30N 40°56' E 024°25'0 0.0
2018-Feb-21 16:00N 40°56' E 024°25'0 0.0
2018-Feb-21 15:27N 40°56' E 024°25'0 0.0
2018-Feb-21 15:00N 40°56' E 024°25'3 6.1
2018-Feb-21 14:31N 40°53' E 024°26'611.2
2018-Feb-21 13:59N 40°48' E 024°30'511.1
2018-Feb-21 13:30N 40°53' E 024°27'4 7.1
2018-Feb-21 13:00N 40°56' E 024°25'0 0.0
2018-Feb-21 12:30N 40°56' E 024°25'0 0.0
2018-Feb-21 12:00N 40°56' E 024°25'0 0.0
2018-Feb-21 11:30N 40°56' E 024°25'0 0.1
2018-Feb-21 11:00N 40°56' E 024°25'0 0.2
2018-Feb-21 10:26N 40°56' E 024°25'0 0.0
2018-Feb-21 09:59N 40°56' E 024°25'0 0.0
2018-Feb-21 09:26N 40°56' E 024°25'0 0.0
2018-Feb-21 08:59N 40°56' E 024°25'0 0.0
2018-Feb-21 08:26N 40°56' E 024°25'0 0.0
2018-Feb-21 07:59N 40°56' E 024°25'0 0.0
2018-Feb-21 07:26N 40°56' E 024°25'0 0.3
2018-Feb-21 07:00N 40°56' E 024°25'611.8
2018-Feb-21 06:30N 40°51' E 024°28'3 6.2
2018-Feb-21 06:00N 40°48' E 024°30'510.3
2018-Feb-21 05:30N 40°53' E 024°27'4 6.6
2018-Feb-21 04:57N 40°56' E 024°25'0 0.0
2018-Feb-21 04:27N 40°56' E 024°25'0 0.0
2018-Feb-21 03:24N 40°56' E 024°25'0 0.0
2018-Feb-21 03:00N 40°56' E 024°25'0 0.0
2018-Feb-21 02:30N 40°56' E 024°25'0 0.0
2018-Feb-21 02:00N 40°56' E 024°25'0 0.0
2018-Feb-21 01:24N 40°56' E 024°25'0 0.0
2018-Feb-21 01:00N 40°56' E 024°25'0 0.0
2018-Feb-21 00:24N 40°56' E 024°25'0 0.0
2018-Feb-21 00:00N 40°56' E 024°25'0 0.0
2018-Feb-20 23:30N 40°56' E 024°25'0 0.0
2018-Feb-20 23:00N 40°56' E 024°25'3 6.4
2018-Feb-20 22:30N 40°53' E 024°25'611.6
2018-Feb-20 22:00N 40°48' E 024°30'510.2
2018-Feb-20 21:30N 40°53' E 024°27'4 0.6
2018-Feb-20 15:12N 40°56' E 024°25'0 0.7
2018-Feb-20 14:59N 40°56' E 024°25'613.1
2018-Feb-20 14:31N 40°50' E 024°28'3 5.7
2018-Feb-20 14:00N 40°48' E 024°30'611.9
2018-Feb-20 13:30N 40°53' E 024°26'3 5.3
2018-Feb-20 13:00N 40°56' E 024°25'611.5
2018-Feb-20 12:28N 40°57' E 024°33'0 0.0
2018-Feb-20 11:49N 40°57' E 024°33'0 0.0
2018-Feb-20 11:25N 40°57' E 024°33'0 0.0
2018-Feb-20 10:55N 40°57' E 024°33'0 0.0
2018-Feb-20 10:28N 40°57' E 024°33'0 0.0
2018-Feb-20 09:58N 40°57' E 024°33'0 0.0
2018-Feb-20 09:28N 40°57' E 024°33'0 0.0
2018-Feb-20 08:55N 40°57' E 024°33'0 0.0
2018-Feb-20 08:28N 40°57' E 024°33'0 0.0
2018-Feb-20 07:58N 40°57' E 024°33'3 7.4
2018-Feb-20 07:30N 40°56' E 024°28'3 6.2
2018-Feb-20 07:00N 40°56' E 024°24'816.2
2018-Feb-20 06:30N 40°48' E 024°29'1 1.4
2018-Feb-20 06:00N 40°48' E 024°30'816.2
2018-Feb-20 05:31N 40°55' E 024°25'1 1.5
2018-Feb-20 04:57N 40°56' E 024°25'0 0.0
2018-Feb-20 04:24N 40°56' E 024°25'0 0.0
2018-Feb-20 03:51N 40°56' E 024°25'0 0.0
2018-Feb-20 03:24N 40°56' E 024°25'0 0.0
2018-Feb-20 03:00N 40°56' E 024°25'0 0.0
2018-Feb-20 02:30N 40°56' E 024°25'0 0.0
2018-Feb-20 02:00N 40°56' E 024°25'0 0.0
2018-Feb-20 01:30N 40°56' E 024°25'0 0.0
2018-Feb-20 01:00N 40°56' E 024°25'0 0.0
2018-Feb-20 00:30N 40°56' E 024°25'0 0.0
2018-Feb-20 00:00N 40°56' E 024°25'0 0.0
2018-Feb-19 23:30N 40°56' E 024°25'0 0.0
2018-Feb-19 22:57N 40°56' E 024°25'4 8.5
2018-Feb-19 22:30N 40°52' E 024°26'5 8.9
2018-Feb-19 21:55N 40°48' E 024°30'512.6
2018-Feb-19 21:30N 40°52' E 024°27'4 7.1
2018-Feb-19 20:58N 40°56' E 024°25'0 0.0
2018-Feb-19 20:28N 40°56' E 024°25'0 0.0
2018-Feb-19 19:58N 40°56' E 024°25'0 0.0
2018-Feb-19 19:28N 40°56' E 024°25'0 0.9
2018-Feb-19 19:00N 40°56' E 024°24'816.1
2018-Feb-19 18:30N 40°49' E 024°30'1 2.4
2018-Feb-19 18:01N 40°50' E 024°29'713.6
2018-Feb-19 17:30N 40°56' E 024°25'0 0.2
2018-Feb-19 16:48N 40°56' E 024°25'0 0.0
2018-Feb-19 16:30N 40°56' E 024°25'0 0.0
2018-Feb-19 15:48N 40°56' E 024°25'0 0.0
2018-Feb-19 15:30N 40°56' E 024°25'0 0.0
2018-Feb-19 14:18N 40°56' E 024°25'0 0.0
2018-Feb-19 13:54N 40°56' E 024°25'0 0.0
2018-Feb-19 13:30N 40°56' E 024°25'0 0.0
2018-Feb-19 12:57N 40°56' E 024°25'0 0.0
2018-Feb-19 12:27N 40°56' E 024°25'0 0.0
2018-Feb-19 11:51N 40°56' E 024°25'0 0.0
2018-Feb-19 11:27N 40°56' E 024°25'0 0.0
2018-Feb-19 10:57N 40°56' E 024°25'0 0.0
2018-Feb-19 10:27N 40°56' E 024°25'0 0.0
2018-Feb-19 09:57N 40°56' E 024°25'0 0.0
2018-Feb-19 09:27N 40°56' E 024°25'0 0.0
2018-Feb-19 08:57N 40°56' E 024°25'0 0.0
2018-Feb-19 08:21N 40°56' E 024°25'0 0.0
2018-Feb-19 07:39N 40°56' E 024°25'0 0.0
2018-Feb-19 07:27N 40°56' E 024°25'0 0.0
2018-Feb-19 06:57N 40°56' E 024°25'0 0.0
2018-Feb-19 06:15N 40°56' E 024°25'0 0.0
2018-Feb-19 05:51N 40°56' E 024°25'0 0.0
2018-Feb-19 05:27N 40°56' E 024°25'0 0.0
2018-Feb-19 04:39N 40°56' E 024°25'0 0.0
2018-Feb-19 04:09N 40°56' E 024°25'0 0.0
2018-Feb-19 03:57N 40°56' E 024°25'0 0.0
2018-Feb-19 03:27N 40°56' E 024°25'0 0.0
2018-Feb-19 02:57N 40°56' E 024°25'0 0.0
2018-Feb-19 02:09N 40°56' E 024°25'0 0.0
2018-Feb-19 01:51N 40°56' E 024°25'0 0.0
2018-Feb-19 01:15N 40°56' E 024°25'0 0.0
2018-Feb-19 00:45N 40°56' E 024°25'0 0.0
2018-Feb-19 00:27N 40°56' E 024°25'0 0.0
2018-Feb-18 23:51N 40°56' E 024°25'0 0.0
2018-Feb-18 23:27N 40°56' E 024°25'0 0.0
2018-Feb-18 22:57N 40°56' E 024°25'2 5.6
2018-Feb-18 22:30N 40°53' E 024°25'612.1
2018-Feb-18 21:59N 40°48' E 024°30'510.6
2018-Feb-18 21:31N 40°52' E 024°27'4 7.4
2018-Feb-18 20:59N 40°56' E 024°25'0 0.0
2018-Feb-18 20:23N 40°56' E 024°25'0 0.0
2018-Feb-18 18:59N 40°56' E 024°25'4 7.8
2018-Feb-18 18:30N 40°52' E 024°26'510.2
2018-Feb-18 18:00N 40°48' E 024°30'510.6
2018-Feb-18 17:30N 40°53' E 024°27'4 1.4
2018-Feb-18 14:54N 40°56' E 024°25'3 8.2
2018-Feb-18 14:31N 40°53' E 024°26'610.9
2018-Feb-18 13:59N 40°48' E 024°30'612.4
2018-Feb-18 13:31N 40°53' E 024°26'3 6.0
2018-Feb-18 13:00N 40°56' E 024°25'0 0.0
2018-Feb-18 12:30N 40°56' E 024°25'0 0.0
2018-Feb-18 12:00N 40°56' E 024°25'0 0.0
2018-Feb-18 11:30N 40°56' E 024°25'0 0.0
2018-Feb-18 10:57N 40°56' E 024°25'0 0.0
2018-Feb-18 10:30N 40°56' E 024°25'0 0.0
2018-Feb-18 10:00N 40°56' E 024°25'0 0.0
2018-Feb-18 09:30N 40°56' E 024°25'0 0.0
2018-Feb-18 09:00N 40°56' E 024°25'0 0.0
2018-Feb-18 08:27N 40°56' E 024°25'0 0.0
2018-Feb-18 07:54N 40°56' E 024°25'0 0.0
2018-Feb-18 07:30N 40°56' E 024°25'0 0.3
2018-Feb-18 06:58N 40°56' E 024°25'713.8
2018-Feb-18 06:27N 40°49' E 024°29'2 3.8
2018-Feb-18 05:59N 40°48' E 024°30'611.4
2018-Feb-18 05:30N 40°53' E 024°26'3 6.7
2018-Feb-18 05:00N 40°56' E 024°25'0 0.0
2018-Feb-18 04:30N 40°56' E 024°25'0 0.0
2018-Feb-18 04:00N 40°56' E 024°25'0 0.0
2018-Feb-18 02:24N 40°56' E 024°25'0 0.0
2018-Feb-18 02:00N 40°56' E 024°25'0 0.0
2018-Feb-18 01:12N 40°56' E 024°25'0 0.0
2018-Feb-18 00:54N 40°56' E 024°25'0 0.0
2018-Feb-18 00:30N 40°56' E 024°25'0 0.0
2018-Feb-18 00:00N 40°56' E 024°25'0 0.0
2018-Feb-17 19:24N 40°56' E 024°25'0 0.0
2018-Feb-17 17:06N 40°56' E 024°25'0 0.0
2018-Feb-17 16:48N 40°56' E 024°25'0 0.0
2018-Feb-17 16:24N 40°56' E 024°25'0 0.0
2018-Feb-17 16:00N 40°56' E 024°25'0 0.0
2018-Feb-17 15:30N 40°56' E 024°25'0 0.0
2018-Feb-17 14:48N 40°56' E 024°25'0 0.0
2018-Feb-17 14:18N 40°56' E 024°25'0 0.0
2018-Feb-17 14:00N 40°56' E 024°25'0 0.0
2018-Feb-17 13:30N 40°56' E 024°25'0 0.0
2018-Feb-17 13:00N 40°56' E 024°25'0 0.0
2018-Feb-17 12:30N 40°56' E 024°25'0 0.0
2018-Feb-17 12:00N 40°56' E 024°25'0 0.0
2018-Feb-17 11:24N 40°56' E 024°25'0 0.0
2018-Feb-17 11:00N 40°56' E 024°25'0 0.0
2018-Feb-17 10:30N 40°56' E 024°25'0 0.0
2018-Feb-17 10:00N 40°56' E 024°25'0 0.0
2018-Feb-17 09:30N 40°56' E 024°25'0 0.0
2018-Feb-17 08:57N 40°56' E 024°25'0 0.0
2018-Feb-17 08:24N 40°56' E 024°25'0 0.0
2018-Feb-17 08:00N 40°56' E 024°25'0 0.0
2018-Feb-17 07:24N 40°56' E 024°25'0 0.0
2018-Feb-17 07:00N 40°56' E 024°25'0 0.0
2018-Feb-17 06:24N 40°56' E 024°25'0 0.0
2018-Feb-17 06:00N 40°56' E 024°25'0 0.0
2018-Feb-17 05:30N 40°56' E 024°25'0 0.0
2018-Feb-17 05:00N 40°56' E 024°25'0 0.0
2018-Feb-17 04:30N 40°56' E 024°25'0 0.0
2018-Feb-17 04:00N 40°56' E 024°25'0 0.0
2018-Feb-17 03:30N 40°56' E 024°25'0 0.0
2018-Feb-17 03:00N 40°56' E 024°25'0 0.0
2018-Feb-17 02:30N 40°56' E 024°25'0 0.0
2018-Feb-17 02:00N 40°56' E 024°25'0 0.0
2018-Feb-17 01:24N 40°56' E 024°25'0 0.0
2018-Feb-17 01:00N 40°56' E 024°25'0 0.0
2018-Feb-17 00:30N 40°56' E 024°25'0 0.0
2018-Feb-17 00:00N 40°56' E 024°25'0 0.0
2018-Feb-16 23:30N 40°56' E 024°25'0 0.0
2018-Feb-16 22:54N 40°56' E 024°25'0 0.0
2018-Feb-16 22:30N 40°56' E 024°25'0 0.0
2018-Feb-16 22:00N 40°56' E 024°25'0 0.0
2018-Feb-16 21:30N 40°56' E 024°25'0 0.0
2018-Feb-16 21:00N 40°56' E 024°25'0 0.0
2018-Feb-16 20:30N 40°56' E 024°25'0 0.0
2018-Feb-16 20:00N 40°56' E 024°25'0 0.0
2018-Feb-16 19:30N 40°56' E 024°25'0 0.0
2018-Feb-16 18:48N 40°56' E 024°25'0 0.0
2018-Feb-16 18:30N 40°56' E 024°25'0 0.0
2018-Feb-16 17:42N 40°56' E 024°25'0 0.0
2018-Feb-16 17:24N 40°56' E 024°25'0 0.0
2018-Feb-16 16:57N 40°56' E 024°25'0 0.0
2018-Feb-16 16:24N 40°56' E 024°25'0 0.0
2018-Feb-16 15:54N 40°56' E 024°25'0 0.0
2018-Feb-16 15:30N 40°56' E 024°25'0 0.0
2018-Feb-16 15:00N 40°56' E 024°25'0 0.0
2018-Feb-16 14:30N 40°56' E 024°25'0 0.0
2018-Feb-16 13:45N 40°56' E 024°25'0 0.0
2018-Feb-16 13:27N 40°56' E 024°25'0 0.2
2018-Feb-16 13:00N 40°56' E 024°24'4 7.7
2018-Feb-16 12:30N 40°52' E 024°26'4 8.4
2018-Feb-16 12:00N 40°49' E 024°29'1 1.5
2018-Feb-16 11:22N 40°48' E 024°30'0 0.0
2018-Feb-16 10:43N 40°48' E 024°30'1 3.2
2018-Feb-16 10:30N 40°48' E 024°30'816.3
2018-Feb-16 10:00N 40°56' E 024°32'1 1.5
2018-Feb-16 09:29N 40°57' E 024°33'0 0.0
2018-Feb-16 08:59N 40°57' E 024°33'3 5.4
2018-Feb-16 08:30N 40°56' E 024°29'4 6.6
2018-Feb-16 07:58N 40°56' E 024°25'0 0.0
2018-Feb-16 07:28N 40°56' E 024°25'0 0.4
2018-Feb-16 06:59N 40°56' E 024°25'613.2
2018-Feb-16 06:30N 40°50' E 024°28'3 5.4
2018-Feb-16 06:00N 40°48' E 024°30'511.2
2018-Feb-16 05:30N 40°53' E 024°27'3 5.1
2018-Feb-16 04:50N 40°56' E 024°25'0 0.0
2018-Feb-16 04:26N 40°56' E 024°25'0 0.0
2018-Feb-16 03:59N 40°56' E 024°25'0 0.0
2018-Feb-16 03:26N 40°56' E 024°25'0 0.0
2018-Feb-16 02:59N 40°56' E 024°25'0 0.0
2018-Feb-16 02:29N 40°56' E 024°25'0 0.0
2018-Feb-16 01:56N 40°56' E 024°25'0 0.0
2018-Feb-16 01:29N 40°56' E 024°25'0 0.0
2018-Feb-16 00:59N 40°56' E 024°25'0 0.0
2018-Feb-16 00:26N 40°56' E 024°25'0 0.0
2018-Feb-15 23:59N 40°56' E 024°25'0 0.0
2018-Feb-15 23:29N 40°56' E 024°25'0 0.0
2018-Feb-15 23:00N 40°56' E 024°25'510.4
2018-Feb-15 22:30N 40°51' E 024°27'4 7.2
2018-Feb-15 21:59N 40°48' E 024°30'611.7
2018-Feb-15 21:30N 40°53' E 024°27'3 6.2
2018-Feb-15 20:58N 40°56' E 024°25'0 0.0
2018-Feb-15 20:19N 40°56' E 024°25'0 0.0
2018-Feb-15 19:55N 40°56' E 024°25'0 0.0
2018-Feb-15 19:19N 40°56' E 024°25'0 0.0
2018-Feb-15 18:58N 40°56' E 024°25'4 9.6
2018-Feb-15 18:30N 40°52' E 024°27'4 8.7
2018-Feb-15 18:00N 40°48' E 024°30'511.1
2018-Feb-15 17:30N 40°53' E 024°27'3 6.3
2018-Feb-15 16:58N 40°56' E 024°25'0 0.0
2018-Feb-15 16:28N 40°56' E 024°25'0 0.0
2018-Feb-15 15:52N 40°56' E 024°25'0 0.0
2018-Feb-15 15:31N 40°56' E 024°25'0 0.0
2018-Feb-15 15:01N 40°56' E 024°25'4 7.3
2018-Feb-15 14:30N 40°52' E 024°26'510.0
2018-Feb-15 13:59N 40°48' E 024°30'511.6
2018-Feb-15 13:31N 40°53' E 024°27'3 6.0
2018-Feb-15 12:56N 40°56' E 024°25'0 0.0
2018-Feb-15 12:29N 40°56' E 024°25'0 0.0
2018-Feb-15 11:35N 40°56' E 024°25'0 0.0
2018-Feb-15 11:17N 40°56' E 024°25'0 0.0
2018-Feb-15 10:53N 40°56' E 024°25'0 0.0
2018-Feb-15 10:23N 40°56' E 024°25'0 0.0
2018-Feb-15 09:59N 40°56' E 024°25'0 0.0
2018-Feb-15 09:29N 40°56' E 024°25'0 0.0
2018-Feb-15 08:05N 40°56' E 024°25'0 0.0
2018-Feb-15 07:53N 40°56' E 024°25'0 0.5
2018-Feb-15 07:30N 40°56' E 024°25'713.6
2018-Feb-15 07:00N 40°50' E 024°28'2 4.4
2018-Feb-15 06:30N 40°48' E 024°30'511.2
2018-Feb-15 06:00N 40°53' E 024°27'4 6.8
2018-Feb-15 05:29N 40°56' E 024°25'0 0.3
2018-Feb-15 04:46N 40°56' E 024°25'0 0.0
2018-Feb-15 04:28N 40°56' E 024°25'0 0.0
2018-Feb-14 23:43N 40°56' E 024°25'0 0.0
2018-Feb-14 23:28N 40°56' E 024°25'0 0.0
2018-Feb-14 22:58N 40°56' E 024°25'0 0.0
2018-Feb-14 22:28N 40°56' E 024°25'0 0.0
2018-Feb-14 21:52N 40°56' E 024°25'0 0.0
2018-Feb-14 21:28N 40°56' E 024°25'0 0.0
2018-Feb-14 20:58N 40°56' E 024°25'0 0.0
2018-Feb-14 20:28N 40°56' E 024°25'0 0.0
2018-Feb-14 19:58N 40°56' E 024°25'0 0.0
2018-Feb-14 19:28N 40°56' E 024°25'0 0.0
2018-Feb-14 18:58N 40°56' E 024°25'0 0.0
2018-Feb-14 18:13N 40°56' E 024°25'0 0.0
2018-Feb-14 17:55N 40°56' E 024°25'0 0.0
2018-Feb-14 16:40N 40°56' E 024°25'0 0.0
2018-Feb-14 16:28N 40°56' E 024°25'0 0.0
2018-Feb-14 15:58N 40°56' E 024°25'0 0.0
2018-Feb-14 15:22N 40°56' E 024°25'  

Dump ship's entire track history